sensor_id;sensor_type;location;lat;lon;timestamp;pressure;altitude;pressure_sealevel;temperature;humidity
9077;BME280;4574;51.072;17.174;2024-01-06T00:01:24;99130.63;;;3.37;100.00
9077;BME280;4574;51.072;17.174;2024-01-06T00:03:53;99122.34;;;3.32;100.00
9077;BME280;4574;51.072;17.174;2024-01-06T00:06:22;99112.25;;;3.28;100.00
9077;BME280;4574;51.072;17.174;2024-01-06T00:08:51;99130.50;;;3.39;100.00
9077;BME280;4574;51.072;17.174;2024-01-06T00:11:21;99122.66;;;3.39;100.00
9077;BME280;4574;51.072;17.174;2024-01-06T00:13:50;99128.34;;;3.44;100.00
9077;BME280;4574;51.072;17.174;2024-01-06T00:16:19;99134.28;;;3.46;100.00
9077;BME280;4574;51.072;17.174;2024-01-06T00:18:50;99132.47;;;3.46;100.00
9077;BME280;4574;51.072;17.174;2024-01-06T00:21:19;99132.09;;;3.51;100.00
9077;BME280;4574;51.072;17.174;2024-01-06T00:23:48;99136.38;;;3.52;100.00
9077;BME280;4574;51.072;17.174;2024-01-06T00:26:16;99140.66;;;3.53;100.00
9077;BME280;4574;51.072;17.174;2024-01-06T00:28:45;99134.84;;;3.49;100.00
9077;BME280;4574;51.072;17.174;2024-01-06T00:31:16;99143.66;;;3.48;100.00
9077;BME280;4574;51.072;17.174;2024-01-06T00:33:45;99135.94;;;3.47;100.00
9077;BME280;4574;51.072;17.174;2024-01-06T00:36:15;99133.88;;;3.50;100.00
9077;BME280;4574;51.072;17.174;2024-01-06T00:38:44;99129.59;;;3.49;100.00
9077;BME280;4574;51.072;17.174;2024-01-06T00:41:13;99131.41;;;3.49;100.00
9077;BME280;4574;51.072;17.174;2024-01-06T00:43:42;99135.78;;;3.48;100.00
9077;BME280;4574;51.072;17.174;2024-01-06T00:46:10;99136.69;;;3.38;100.00
9077;BME280;4574;51.072;17.174;2024-01-06T00:48:39;99130.91;;;3.34;100.00
9077;BME280;4574;51.072;17.174;2024-01-06T00:51:08;99137.19;;;3.32;100.00
9077;BME280;4574;51.072;17.174;2024-01-06T00:53:38;99133.88;;;3.30;100.00
9077;BME280;4574;51.072;17.174;2024-01-06T00:56:07;99138.84;;;3.33;100.00
9077;BME280;4574;51.072;17.174;2024-01-06T00:58:35;99130.44;;;3.29;100.00
9077;BME280;4574;51.072;17.174;2024-01-06T01:01:04;99127.06;;;3.38;100.00
9077;BME280;4574;51.072;17.174;2024-01-06T01:03:32;99129.41;;;3.41;100.00
9077;BME280;4574;51.072;17.174;2024-01-06T01:06:01;99134.28;;;3.46;100.00
9077;BME280;4574;51.072;17.174;2024-01-06T01:08:30;99142.84;;;3.48;100.00
9077;BME280;4574;51.072;17.174;2024-01-06T01:11:00;99148.75;;;3.50;100.00
9077;BME280;4574;51.072;17.174;2024-01-06T01:13:29;99148.06;;;3.48;100.00
9077;BME280;4574;51.072;17.174;2024-01-06T01:15:57;99153.28;;;3.48;100.00
9077;BME280;4574;51.072;17.174;2024-01-06T01:18:26;99142.84;;;3.48;100.00
9077;BME280;4574;51.072;17.174;2024-01-06T01:20:55;99144.75;;;3.46;100.00
9077;BME280;4574;51.072;17.174;2024-01-06T01:23:23;99146.50;;;3.45;100.00
9077;BME280;4574;51.072;17.174;2024-01-06T01:25:52;99146.41;;;3.47;100.00
9077;BME280;4574;51.072;17.174;2024-01-06T01:28:22;99152.06;;;3.52;100.00
9077;BME280;4574;51.072;17.174;2024-01-06T01:30:50;99152.78;;;3.54;100.00
9077;BME280;4574;51.072;17.174;2024-01-06T01:33:19;99140.72;;;3.42;100.00
9077;BME280;4574;51.072;17.174;2024-01-06T01:35:48;99144.50;;;3.49;100.00
9077;BME280;4574;51.072;17.174;2024-01-06T01:38:17;99156.09;;;3.56;100.00
9077;BME280;4574;51.072;17.174;2024-01-06T01:40:46;99158.25;;;3.51;100.00
9077;BME280;4574;51.072;17.174;2024-01-06T01:43:18;99160.63;;;3.54;100.00
9077;BME280;4574;51.072;17.174;2024-01-06T01:45:50;99160.63;;;3.54;100.00
9077;BME280;4574;51.072;17.174;2024-01-06T01:48:20;99170.13;;;3.55;100.00
9077;BME280;4574;51.072;17.174;2024-01-06T01:50:49;99159.66;;;3.55;100.00
9077;BME280;4574;51.072;17.174;2024-01-06T01:53:19;99166.41;;;3.57;100.00
9077;BME280;4574;51.072;17.174;2024-01-06T01:55:48;99169.03;;;3.57;100.00
9077;BME280;4574;51.072;17.174;2024-01-06T01:58:17;99162.72;;;3.60;100.00
9077;BME280;4574;51.072;17.174;2024-01-06T02:00:48;99162.03;;;3.58;100.00
9077;BME280;4574;51.072;17.174;2024-01-06T02:03:17;99151.13;;;3.53;100.00
9077;BME280;4574;51.072;17.174;2024-01-06T02:05:45;99152.78;;;3.54;100.00
9077;BME280;4574;51.072;17.174;2024-01-06T02:08:14;99161.59;;;3.53;100.00
9077;BME280;4574;51.072;17.174;2024-01-06T02:10:43;99158.81;;;3.54;100.00
9077;BME280;4574;51.072;17.174;2024-01-06T02:13:12;99161.59;;;3.53;100.00
9077;BME280;4574;51.072;17.174;2024-01-06T02:15:41;99152.88;;;3.52;100.00
9077;BME280;4574;51.072;17.174;2024-01-06T02:18:11;99154.69;;;3.52;100.00
9077;BME280;4574;51.072;17.174;2024-01-06T02:20:43;99149.47;;;3.52;100.00
9077;BME280;4574;51.072;17.174;2024-01-06T02:23:13;99151.94;;;3.53;100.00
9077;BME280;4574;51.072;17.174;2024-01-06T02:25:42;99154.56;;;3.53;100.00
9077;BME280;4574;51.072;17.174;2024-01-06T02:28:11;99146.00;;;3.51;100.00
9077;BME280;4574;51.072;17.174;2024-01-06T02:30:39;99147.81;;;3.51;100.00
9077;BME280;4574;51.072;17.174;2024-01-06T02:33:08;99142.84;;;3.48;100.00
9077;BME280;4574;51.072;17.174;2024-01-06T02:35:38;99141.19;;;3.47;100.00
9077;BME280;4574;51.072;17.174;2024-01-06T02:38:07;99140.31;;;3.46;100.00
9077;BME280;4574;51.072;17.174;2024-01-06T02:40:38;99142.13;;;3.46;100.00
9077;BME280;4574;51.072;17.174;2024-01-06T02:43:07;99145.97;;;3.42;100.00
9077;BME280;4574;51.072;17.174;2024-01-06T02:45:35;99155.69;;;3.40;100.00
9077;BME280;4574;51.072;17.174;2024-01-06T02:48:04;99162.84;;;3.38;100.00
9077;BME280;4574;51.072;17.174;2024-01-06T02:50:33;99158.13;;;3.32;100.00
9077;BME280;4574;51.072;17.174;2024-01-06T02:53:03;99161.44;;;3.34;100.00
9077;BME280;4574;51.072;17.174;2024-01-06T02:55:31;99166.91;;;3.31;100.00
9077;BME280;4574;51.072;17.174;2024-01-06T02:58:02;99164.19;;;3.32;100.00
9077;BME280;4574;51.072;17.174;2024-01-06T03:00:30;99168.22;;;3.36;100.00
9077;BME280;4574;51.072;17.174;2024-01-06T03:02:59;99159.25;;;3.39;100.00
9077;BME280;4574;51.072;17.174;2024-01-06T03:05:27;99150.47;;;3.40;100.00
9077;BME280;4574;51.072;17.174;2024-01-06T03:07:56;99152.97;;;3.41;100.00
9077;BME280;4574;51.072;17.174;2024-01-06T03:10:25;99155.47;;;3.43;100.00
9077;BME280;4574;51.072;17.174;2024-01-06T03:12:53;99144.53;;;3.38;100.00
9077;BME280;4574;51.072;17.174;2024-01-06T03:15:23;99162.84;;;3.38;100.00
9077;BME280;4574;51.072;17.174;2024-01-06T03:17:52;99156.78;;;3.37;100.00
9077;BME280;4574;51.072;17.174;2024-01-06T03:20:21;99148.94;;;3.37;100.00
9077;BME280;4574;51.072;17.174;2024-01-06T03:22:49;99146.84;;;3.31;100.00
9077;BME280;4574;51.072;17.174;2024-01-06T03:25:18;99161.06;;;3.38;100.00
9077;BME280;4574;51.072;17.174;2024-01-06T03:27:47;99157.03;;;3.34;100.00
9077;BME280;4574;51.072;17.174;2024-01-06T03:30:15;99160.63;;;3.33;100.00
9077;BME280;4574;51.072;17.174;2024-01-06T03:32:46;99157.22;;;3.22;100.00
9077;BME280;4574;51.072;17.174;2024-01-06T03:35:14;99134.25;;;3.05;100.00
9077;BME280;4574;51.072;17.174;2024-01-06T03:37:43;99148.03;;;3.07;100.00
9077;BME280;4574;51.072;17.174;2024-01-06T03:40:12;99168.19;;;3.16;100.00
9077;BME280;4574;51.072;17.174;2024-01-06T03:42:41;99156.78;;;3.17;100.00
9077;BME280;4574;51.072;17.174;2024-01-06T03:45:10;99166.53;;;3.15;100.00
9077;BME280;4574;51.072;17.174;2024-01-06T03:47:38;99167.13;;;3.18;100.00
9077;BME280;4574;51.072;17.174;2024-01-06T03:50:09;99172.66;;;3.25;100.00
9077;BME280;4574;51.072;17.174;2024-01-06T03:52:38;99176.94;;;3.26;100.00
9077;BME280;4574;51.072;17.174;2024-01-06T03:55:07;99162.19;;;3.25;100.00
9077;BME280;4574;51.072;17.174;2024-01-06T03:57:35;99174.50;;;3.34;100.00
9077;BME280;4574;51.072;17.174;2024-01-06T04:00:05;99180.19;;;3.39;100.00
9077;BME280;4574;51.072;17.174;2024-01-06T04:02:34;99183.75;;;3.38;100.00
9077;BME280;4574;51.072;17.174;2024-01-06T04:05:04;99187.91;;;3.40;100.00
9077;BME280;4574;51.072;17.174;2024-01-06T04:07:34;99177.72;;;3.37;100.00
9077;BME280;4574;51.072;17.174;2024-01-06T04:10:04;99180.06;;;3.40;100.00
9077;BME280;4574;51.072;17.174;2024-01-06T04:12:32;99176.50;;;3.41;100.00
9077;BME280;4574;51.072;17.174;2024-01-06T04:15:01;99181.63;;;3.43;100.00
9077;BME280;4574;51.072;17.174;2024-01-06T04:17:30;99175.53;;;3.42;100.00
9077;BME280;4574;51.072;17.174;2024-01-06T04:19:59;99173.06;;;3.41;100.00
9077;BME280;4574;51.072;17.174;2024-01-06T04:22:27;99192.78;;;3.45;100.00
9077;BME280;4574;51.072;17.174;2024-01-06T04:24:57;99177.81;;;3.36;100.00
9077;BME280;4574;51.072;17.174;2024-01-06T04:27:26;99191.81;;;3.46;100.00
9077;BME280;4574;51.072;17.174;2024-01-06T04:29:55;99189.56;;;3.41;100.00
9077;BME280;4574;51.072;17.174;2024-01-06T04:32:23;99195.66;;;3.42;100.00
9077;BME280;4574;51.072;17.174;2024-01-06T04:34:52;99194.00;;;3.41;100.00
9077;BME280;4574;51.072;17.174;2024-01-06T04:37:20;99199.22;;;3.41;100.00
9077;BME280;4574;51.072;17.174;2024-01-06T04:39:49;99195.16;;;3.37;100.00
9077;BME280;4574;51.072;17.174;2024-01-06T04:42:19;99204.47;;;3.41;100.00
9077;BME280;4574;51.072;17.174;2024-01-06T04:44:49;99203.72;;;3.39;100.00
9077;BME280;4574;51.072;17.174;2024-01-06T04:47:18;99202.22;;;3.36;100.00
9077;BME280;4574;51.072;17.174;2024-01-06T04:49:47;99214.31;;;3.37;100.00
9077;BME280;4574;51.072;17.174;2024-01-06T04:52:15;99190.00;;;3.26;100.00
9077;BME280;4574;51.072;17.174;2024-01-06T04:54:43;99186.44;;;3.27;100.00
9077;BME280;4574;51.072;17.174;2024-01-06T04:57:12;99207.53;;;3.35;100.00
9077;BME280;4574;51.072;17.174;2024-01-06T04:59:42;99208.25;;;3.37;100.00
9077;BME280;4574;51.072;17.174;2024-01-06T05:02:11;99211.56;;;3.39;100.00
9077;BME280;4574;51.072;17.174;2024-01-06T05:04:40;99209.78;;;3.39;100.00
9077;BME280;4574;51.072;17.174;2024-01-06T05:07:08;99211.72;;;3.37;100.00
9077;BME280;4574;51.072;17.174;2024-01-06T05:09:37;99217.06;;;3.36;100.00
9077;BME280;4574;51.072;17.174;2024-01-06T05:12:05;99228.91;;;3.40;100.00
9077;BME280;4574;51.072;17.174;2024-01-06T05:14:34;99232.38;;;3.40;100.00
9077;BME280;4574;51.072;17.174;2024-01-06T05:17:04;99233.34;;;3.39;100.00
9077;BME280;4574;51.072;17.174;2024-01-06T05:19:33;99237.72;;;3.39;100.00
9077;BME280;4574;51.072;17.174;2024-01-06T05:22:02;99235.25;;;3.37;100.00
9077;BME280;4574;51.072;17.174;2024-01-06T05:24:31;99237.00;;;3.37;100.00
9077;BME280;4574;51.072;17.174;2024-01-06T05:26:59;99245.72;;;3.37;100.00
9077;BME280;4574;51.072;17.174;2024-01-06T05:29:28;99245.72;;;3.37;100.00
9077;BME280;4574;51.072;17.174;2024-01-06T05:31:57;99255.31;;;3.37;100.00
9077;BME280;4574;51.072;17.174;2024-01-06T05:34:27;99246.47;;;3.28;100.00
9077;BME280;4574;51.072;17.174;2024-01-06T05:36:56;99251.28;;;3.33;100.00
9077;BME280;4574;51.072;17.174;2024-01-06T05:39:24;99259.16;;;3.33;100.00
9077;BME280;4574;51.072;17.174;2024-01-06T05:41:53;99257.72;;;3.29;100.00
9077;BME280;4574;51.072;17.174;2024-01-06T05:44:22;99262.84;;;3.30;100.00
9077;BME280;4574;51.072;17.174;2024-01-06T05:46:50;99268.19;;;3.29;100.00
9077;BME280;4574;51.072;17.174;2024-01-06T05:49:19;99274.53;;;3.26;100.00
9077;BME280;4574;51.072;17.174;2024-01-06T05:51:49;99267.16;;;3.20;100.00
9077;BME280;4574;51.072;17.174;2024-01-06T05:54:18;99279.84;;;3.25;100.00
9077;BME280;4574;51.072;17.174;2024-01-06T05:56:47;99282.72;;;3.22;100.00
9077;BME280;4574;51.072;17.174;2024-01-06T05:59:15;99278.81;;;3.16;100.00
9077;BME280;4574;51.072;17.174;2024-01-06T06:01:44;99271.09;;;3.15;100.00
9077;BME280;4574;51.072;17.174;2024-01-06T06:04:13;99261.03;;;3.10;100.00
9077;BME280;4574;51.072;17.174;2024-01-06T06:06:42;99264.34;;;3.12;100.00
9077;BME280;4574;51.072;17.174;2024-01-06T06:09:12;99262.78;;;3.10;100.00
9077;BME280;4574;51.072;17.174;2024-01-06T06:11:42;99270.28;;;3.14;100.00
9077;BME280;4574;51.072;17.174;2024-01-06T06:14:11;99277.97;;;3.16;100.00
9077;BME280;4574;51.072;17.174;2024-01-06T06:16:40;99272.03;;;3.14;100.00
9077;BME280;4574;51.072;17.174;2024-01-06T06:19:08;99271.94;;;3.15;100.00
9077;BME280;4574;51.072;17.174;2024-01-06T06:21:37;99276.22;;;3.16;100.00
9077;BME280;4574;51.072;17.174;2024-01-06T06:24:06;99273.00;;;3.13;100.00
9077;BME280;4574;51.072;17.174;2024-01-06T06:26:36;99278.47;;;3.10;100.00
9077;BME280;4574;51.072;17.174;2024-01-06T06:29:08;99280.38;;;3.08;100.00
9077;BME280;4574;51.072;17.174;2024-01-06T06:31:36;99285.63;;;3.08;100.00
9077;BME280;4574;51.072;17.174;2024-01-06T06:34:05;99292.50;;;3.09;100.00
9077;BME280;4574;51.072;17.174;2024-01-06T06:36:35;99296.78;;;3.10;100.00
9077;BME280;4574;51.072;17.174;2024-01-06T06:39:04;99291.44;;;3.11;100.00
9077;BME280;4574;51.072;17.174;2024-01-06T06:41:32;99283.94;;;3.07;100.00
9077;BME280;4574;51.072;17.174;2024-01-06T06:44:03;99302.50;;;3.04;100.00
9077;BME280;4574;51.072;17.174;2024-01-06T06:46:31;99294.81;;;2.91;100.00
9077;BME280;4574;51.072;17.174;2024-01-06T06:49:00;99321.63;;;3.04;100.00
9077;BME280;4574;51.072;17.174;2024-01-06T06:51:29;99319.13;;;3.03;100.00
9077;BME280;4574;51.072;17.174;2024-01-06T06:53:58;99327.69;;;3.05;100.00
9077;BME280;4574;51.072;17.174;2024-01-06T06:56:26;99321.03;;;3.01;100.00
9077;BME280;4574;51.072;17.174;2024-01-06T06:58:55;99336.94;;;3.09;100.00
9077;BME280;4574;51.072;17.174;2024-01-06T07:01:25;99336.00;;;3.10;100.00
9077;BME280;4574;51.072;17.174;2024-01-06T07:03:53;99341.22;;;3.10;100.00
9077;BME280;4574;51.072;17.174;2024-01-06T07:06:25;99340.97;;;3.13;100.00
9077;BME280;4574;51.072;17.174;2024-01-06T07:08:54;99343.34;;;3.16;100.00
9077;BME280;4574;51.072;17.174;2024-01-06T07:11:22;99343.09;;;3.19;100.00
9077;BME280;4574;51.072;17.174;2024-01-06T07:13:51;99345.72;;;3.19;100.00
9077;BME280;4574;51.072;17.174;2024-01-06T07:16:20;99343.00;;;3.20;100.00
9077;BME280;4574;51.072;17.174;2024-01-06T07:18:51;99323.88;;;3.09;100.00
9077;BME280;4574;51.072;17.174;2024-01-06T07:21:20;99340.50;;;3.19;100.00
9077;BME280;4574;51.072;17.174;2024-01-06T07:23:48;99349.75;;;3.23;100.00
9077;BME280;4574;51.072;17.174;2024-01-06T07:26:17;99347.84;;;3.25;100.00
9077;BME280;4574;51.072;17.174;2024-01-06T07:28:46;99350.69;;;3.22;100.00
9077;BME280;4574;51.072;17.174;2024-01-06T07:31:15;99351.78;;;3.19;100.00
9077;BME280;4574;51.072;17.174;2024-01-06T07:33:44;99347.63;;;3.17;100.00
9077;BME280;4574;51.072;17.174;2024-01-06T07:36:14;99356.06;;;3.20;100.00
9077;BME280;4574;51.072;17.174;2024-01-06T07:38:44;99348.34;;;3.08;100.00
9077;BME280;4574;51.072;17.174;2024-01-06T07:41:13;99369.84;;;3.22;100.00
9077;BME280;4574;51.072;17.174;2024-01-06T07:43:41;99367.09;;;3.24;100.00
9077;BME280;4574;51.072;17.174;2024-01-06T07:46:10;99368.91;;;3.23;100.00
9077;BME280;4574;51.072;17.174;2024-01-06T07:48:38;99370.41;;;3.26;100.00
9077;BME280;4574;51.072;17.174;2024-01-06T07:51:07;99380.06;;;3.25;100.00
9077;BME280;4574;51.072;17.174;2024-01-06T07:53:37;99379.34;;;3.23;100.00
9077;BME280;4574;51.072;17.174;2024-01-06T07:56:06;99377.81;;;3.21;100.00
9077;BME280;4574;51.072;17.174;2024-01-06T07:58:34;99385.66;;;3.21;100.00
9077;BME280;4574;51.072;17.174;2024-01-06T08:01:03;99381.38;;;3.20;100.00
9077;BME280;4574;51.072;17.174;2024-01-06T08:03:32;99390.63;;;3.24;100.00
9077;BME280;4574;51.072;17.174;2024-01-06T08:06:01;99387.31;;;3.22;100.00
9077;BME280;4574;51.072;17.174;2024-01-06T08:08:30;99404.41;;;3.26;100.00
9077;BME280;4574;51.072;17.174;2024-01-06T08:10:59;99401.22;;;3.22;100.00
9077;BME280;4574;51.072;17.174;2024-01-06T08:13:28;99407.41;;;3.21;100.00
9077;BME280;4574;51.072;17.174;2024-01-06T08:15:56;99416.78;;;3.24;100.00
9077;BME280;4574;51.072;17.174;2024-01-06T08:18:26;99407.97;;;3.25;100.00
9077;BME280;4574;51.072;17.174;2024-01-06T08:20:55;99410.59;;;3.25;100.00
9077;BME280;4574;51.072;17.174;2024-01-06T08:23:23;99415.97;;;3.23;100.00
9077;BME280;4574;51.072;17.174;2024-01-06T08:25:53;99410.13;;;3.20;100.00
9077;BME280;4574;51.072;17.174;2024-01-06T08:28:22;99416.22;;;3.20;100.00
9077;BME280;4574;51.072;17.174;2024-01-06T08:30:51;99418.91;;;3.19;100.00
9077;BME280;4574;51.072;17.174;2024-01-06T08:33:20;99425.09;;;3.18;100.00
9077;BME280;4574;51.072;17.174;2024-01-06T08:35:48;99421.91;;;3.14;100.00
9077;BME280;4574;51.072;17.174;2024-01-06T08:38:17;99399.44;;;3.01;100.00
9077;BME280;4574;51.072;17.174;2024-01-06T08:40:46;99429.38;;;3.19;100.00
9077;BME280;4574;51.072;17.174;2024-01-06T08:43:17;99436.28;;;3.20;100.00
9077;BME280;4574;51.072;17.174;2024-01-06T08:45:47;99422.16;;;3.11;100.00
9077;BME280;4574;51.072;17.174;2024-01-06T08:48:17;99450.66;;;3.25;100.00
9077;BME280;4574;51.072;17.174;2024-01-06T08:50:46;99450.91;;;3.22;100.00
9077;BME280;4574;51.072;17.174;2024-01-06T08:53:15;99440.94;;;3.16;100.00
9077;BME280;4574;51.072;17.174;2024-01-06T08:55:44;99460.19;;;3.26;100.00
9077;BME280;4574;51.072;17.174;2024-01-06T08:58:13;99464.56;;;3.26;100.00
9077;BME280;4574;51.072;17.174;2024-01-06T09:00:42;99468.72;;;3.28;100.00
9077;BME280;4574;51.072;17.174;2024-01-06T09:03:12;99480.72;;;3.31;100.00
9077;BME280;4574;51.072;17.174;2024-01-06T09:05:41;99472.88;;;3.31;100.00
9077;BME280;4574;51.072;17.174;2024-01-06T09:08:10;99472.78;;;3.32;100.00
9077;BME280;4574;51.072;17.174;2024-01-06T09:10:39;99465.03;;;3.31;100.00
9077;BME280;4574;51.072;17.174;2024-01-06T09:13:07;99466.69;;;3.32;100.00
9077;BME280;4574;51.072;17.174;2024-01-06T09:15:36;99473.47;;;3.34;100.00
9077;BME280;4574;51.072;17.174;2024-01-06T09:18:05;99470.72;;;3.36;100.00
9077;BME280;4574;51.072;17.174;2024-01-06T09:20:35;99483.81;;;3.36;100.00
9077;BME280;4574;51.072;17.174;2024-01-06T09:23:04;99476.69;;;3.38;100.00
9077;BME280;4574;51.072;17.174;2024-01-06T09:25:32;99465.28;;;3.28;100.00
9077;BME280;4574;51.072;17.174;2024-01-06T09:28:01;99489.88;;;3.36;100.00
9077;BME280;4574;51.072;17.174;2024-01-06T09:30:29;99494.97;;;3.38;100.00
9077;BME280;4574;51.072;17.174;2024-01-06T09:32:58;99482.84;;;3.37;100.00
9077;BME280;4574;51.072;17.174;2024-01-06T09:35:27;99486.09;;;3.40;100.00
9077;BME280;4574;51.072;17.174;2024-01-06T09:37:57;99486.19;;;3.39;100.00
9077;BME280;4574;51.072;17.174;2024-01-06T09:40:25;99489.75;;;3.38;100.00
9077;BME280;4574;51.072;17.174;2024-01-06T09:42:54;99488.59;;;3.42;100.00
9077;BME280;4574;51.072;17.174;2024-01-06T09:45:23;99488.47;;;3.43;100.00
9077;BME280;4574;51.072;17.174;2024-01-06T09:47:52;99497.50;;;3.39;100.00
9077;BME280;4574;51.072;17.174;2024-01-06T09:50:21;99487.84;;;3.40;100.00
9077;BME280;4574;51.072;17.174;2024-01-06T09:52:49;99489.66;;;3.39;100.00
9077;BME280;4574;51.072;17.174;2024-01-06T09:55:24;99486.78;;;3.42;100.00
9077;BME280;4574;51.072;17.174;2024-01-06T09:57:53;99492.16;;;3.41;100.00
9077;BME280;4574;51.072;17.174;2024-01-06T10:00:22;99497.16;;;3.44;100.00
9077;BME280;4574;51.072;17.174;2024-01-06T10:02:51;99500.72;;;3.43;100.00
9077;BME280;4574;51.072;17.174;2024-01-06T10:05:19;99493.94;;;3.40;100.00
9077;BME280;4574;51.072;17.174;2024-01-06T10:07:48;99501.41;;;3.34;100.00
9077;BME280;4574;51.072;17.174;2024-01-06T10:10:17;99508.78;;;3.40;100.00
9077;BME280;4574;51.072;17.174;2024-01-06T10:12:48;99493.56;;;3.34;100.00
9077;BME280;4574;51.072;17.174;2024-01-06T10:15:21;99501.66;;;3.42;100.00
9077;BME280;4574;51.072;17.174;2024-01-06T10:17:50;99511.38;;;3.40;100.00
9077;BME280;4574;51.072;17.174;2024-01-06T10:20:19;99512.00;;;3.43;100.00
9077;BME280;4574;51.072;17.174;2024-01-06T10:22:48;99509.28;;;3.45;100.00
9077;BME280;4574;51.072;17.174;2024-01-06T10:25:16;99521.41;;;3.46;100.00
9077;BME280;4574;51.072;17.174;2024-01-06T10:27:45;99525.69;;;3.47;100.00
9077;BME280;4574;51.072;17.174;2024-01-06T10:30:15;99518.06;;;3.55;100.00
9077;BME280;4574;51.072;17.174;2024-01-06T10:32:45;99518.31;;;3.63;100.00
9077;BME280;4574;51.072;17.174;2024-01-06T10:35:14;99510.94;;;3.57;100.00
9077;BME280;4574;51.072;17.174;2024-01-06T10:37:44;99514.38;;;3.57;100.00
9077;BME280;4574;51.072;17.174;2024-01-06T10:40:14;99520.22;;;3.61;100.00
9077;BME280;4574;51.072;17.174;2024-01-06T10:42:45;99524.97;;;3.67;100.00
9077;BME280;4574;51.072;17.174;2024-01-06T10:45:20;99521.25;;;3.69;100.00
9077;BME280;4574;51.072;17.174;2024-01-06T10:47:49;99517.09;;;3.67;100.00
9077;BME280;4574;51.072;17.174;2024-01-06T10:50:18;99511.50;;;3.60;100.00
9077;BME280;4574;51.072;17.174;2024-01-06T10:52:48;99508.06;;;3.60;100.00
9077;BME280;4574;51.072;17.174;2024-01-06T10:55:18;99505.56;;;3.58;100.00
9077;BME280;4574;51.072;17.174;2024-01-06T10:57:48;99512.22;;;3.62;100.00
9077;BME280;4574;51.072;17.174;2024-01-06T11:00:20;99507.84;;;3.63;100.00
9077;BME280;4574;51.072;17.174;2024-01-06T11:02:49;99496.28;;;3.54;100.00
9077;BME280;4574;51.072;17.174;2024-01-06T11:05:19;99505.94;;;3.54;100.00
9077;BME280;4574;51.072;17.174;2024-01-06T11:07:49;99494.53;;;3.55;100.00
9077;BME280;4574;51.072;17.174;2024-01-06T11:10:19;99496.44;;;3.53;100.00
9077;BME280;4574;51.072;17.174;2024-01-06T11:13:11;99496.44;;;3.53;100.00
9077;BME280;4574;51.072;17.174;2024-01-06T11:15:43;99494.16;;;3.48;100.00
9077;BME280;4574;51.072;17.174;2024-01-06T11:18:33;99497.97;;;3.44;100.00
9077;BME280;4574;51.072;17.174;2024-01-06T11:21:19;99501.66;;;3.42;100.00
9077;BME280;4574;51.072;17.174;2024-01-06T11:24:11;99506.16;;;3.40;100.00
9077;BME280;4574;51.072;17.174;2024-01-06T11:26:45;99513.09;;;3.41;100.00
9077;BME280;4574;51.072;17.174;2024-01-06T11:29:14;99516.53;;;3.41;100.00
9077;BME280;4574;51.072;17.174;2024-01-06T11:34:50;99515.81;;;3.39;100.00
9077;BME280;4574;51.072;17.174;2024-01-06T11:37:24;99517.38;;;3.42;100.00
9077;BME280;4574;51.072;17.174;2024-01-06T11:39:53;99525.22;;;3.42;100.00
9077;BME280;4574;51.072;17.174;2024-01-06T11:42:21;99524.47;;;3.40;100.00
9077;BME280;4574;51.072;17.174;2024-01-06T11:45:02;99529.59;;;3.41;100.00
9077;BME280;4574;51.072;17.174;2024-01-06T11:47:36;99522.94;;;3.37;100.00
9077;BME280;4574;51.072;17.174;2024-01-06T11:50:05;99524.59;;;3.38;100.00
9077;BME280;4574;51.072;17.174;2024-01-06T11:52:34;99526.16;;;3.41;100.00
9077;BME280;4574;51.072;17.174;2024-01-06T11:55:03;99525.41;;;3.39;100.00
9077;BME280;4574;51.072;17.174;2024-01-06T11:57:35;99514.38;;;3.35;100.00
9077;BME280;4574;51.072;17.174;2024-01-06T12:00:06;99527.81;;;3.42;100.00
9077;BME280;4574;51.072;17.174;2024-01-06T12:02:36;99525.31;;;3.40;100.00
9077;BME280;4574;51.072;17.174;2024-01-06T12:05:05;99521.84;;;3.40;100.00
9077;BME280;4574;51.072;17.174;2024-01-06T12:07:33;99521.03;;;3.39;100.00
9077;BME280;4574;51.072;17.174;2024-01-06T12:10:03;99523.75;;;3.38;100.00
9077;BME280;4574;51.072;17.174;2024-01-06T12:12:32;99528.41;;;3.34;100.00
9077;BME280;4574;51.072;17.174;2024-01-06T12:15:00;99535.06;;;3.38;100.00
9077;BME280;4574;51.072;17.174;2024-01-06T12:17:30;99536.13;;;3.36;100.00
9077;BME280;4574;51.072;17.174;2024-01-06T12:20:01;99528.41;;;3.23;100.00
9077;BME280;4574;51.072;17.174;2024-01-06T12:22:30;99525.78;;;3.23;100.00
9077;BME280;4574;51.072;17.174;2024-01-06T12:24:58;99534.34;;;3.25;100.00
9077;BME280;4574;51.072;17.174;2024-01-06T12:27:28;99529.84;;;3.27;100.00
9077;BME280;4574;51.072;17.174;2024-01-06T12:29:56;99518.03;;;3.22;100.00
9077;BME280;4574;51.072;17.174;2024-01-06T12:32:25;99535.78;;;3.29;100.00
9077;BME280;4574;51.072;17.174;2024-01-06T12:34:54;99533.03;;;3.31;100.00
9077;BME280;4574;51.072;17.174;2024-01-06T12:37:24;99530.06;;;3.24;100.00
9077;BME280;4574;51.072;17.174;2024-01-06T12:39:53;99544.66;;;3.27;100.00
9077;BME280;4574;51.072;17.174;2024-01-06T12:42:21;99543.97;;;3.25;100.00
9077;BME280;4574;51.072;17.174;2024-01-06T12:44:51;99541.34;;;3.25;100.00
9077;BME280;4574;51.072;17.174;2024-01-06T12:47:19;99549.81;;;3.28;100.00
9077;BME280;4574;51.072;17.174;2024-01-06T12:49:48;99546.47;;;3.26;100.00
9077;BME280;4574;51.072;17.174;2024-01-06T12:52:17;99547.28;;;3.27;100.00
9077;BME280;4574;51.072;17.174;2024-01-06T12:54:47;99534.34;;;3.14;100.00
9077;BME280;4574;51.072;17.174;2024-01-06T12:57:15;99537.31;;;3.21;100.00
9077;BME280;4574;51.072;17.174;2024-01-06T12:59:44;99549.09;;;3.26;100.00
9077;BME280;4574;51.072;17.174;2024-01-06T13:02:13;99552.53;;;3.27;100.00
9077;BME280;4574;51.072;17.174;2024-01-06T13:04:41;99552.75;;;3.24;100.00
9077;BME280;4574;51.072;17.174;2024-01-06T13:07:10;99550.03;;;3.25;100.00
9077;BME280;4574;51.072;17.174;2024-01-06T13:09:39;99555.25;;;3.25;100.00
9077;BME280;4574;51.072;17.174;2024-01-06T13:12:09;99553.59;;;3.24;100.00
9077;BME280;4574;51.072;17.174;2024-01-06T13:14:38;99547.75;;;3.21;100.00
9077;BME280;4574;51.072;17.174;2024-01-06T13:17:06;99560.59;;;3.24;100.00
9077;BME280;4574;51.072;17.174;2024-01-06T13:19:36;99562.50;;;3.22;100.00
9077;BME280;4574;51.072;17.174;2024-01-06T13:22:05;99561.31;;;3.26;100.00
9077;BME280;4574;51.072;17.174;2024-01-06T13:24:33;99555.84;;;3.18;100.00